createdAt,value
2023-05-21T00:03:28.941Z,39.5
2023-05-21T00:08:59.373Z,39.5
2023-05-21T00:14:29.890Z,40
2023-05-21T00:20:00.411Z,40
2023-05-21T00:25:30.004Z,40
2023-05-21T00:31:00.387Z,40
2023-05-21T00:36:30.880Z,40
2023-05-21T00:42:01.476Z,40
2023-05-21T00:47:31.985Z,40
2023-05-21T00:53:02.484Z,40
2023-05-21T00:58:33.014Z,40
2023-05-21T01:04:02.528Z,40
2023-05-21T01:09:33.000Z,40
2023-05-21T01:15:03.591Z,40
2023-05-21T01:20:34.299Z,40
2023-05-21T01:26:04.564Z,40
2023-05-21T01:31:35.164Z,40
2023-05-21T01:37:05.620Z,40
2023-05-21T01:42:36.126Z,40
2023-05-21T01:48:06.759Z,40
2023-05-21T01:53:37.221Z,40
2023-05-21T01:59:07.689Z,40
2023-05-21T02:04:37.171Z,40
2023-05-21T02:10:07.672Z,40
2023-05-21T02:15:38.440Z,40
2023-05-21T02:21:08.785Z,40
2023-05-21T02:26:39.347Z,40
2023-05-21T02:32:09.952Z,40
2023-05-21T02:37:40.438Z,40
2023-05-21T02:43:10.899Z,40
2023-05-21T02:48:41.472Z,40.5
2023-05-21T02:59:41.466Z,40
2023-05-21T03:05:12.048Z,40
2023-05-21T03:10:42.546Z,40
2023-05-21T03:16:13.178Z,40
2023-05-21T03:21:43.610Z,40
2023-05-21T03:27:13.111Z,40.5
2023-05-21T03:32:43.597Z,40.5
2023-05-21T03:38:14.050Z,40.5
2023-05-21T03:43:44.649Z,40.5
2023-05-21T03:49:15.244Z,40.5
2023-05-21T03:54:45.721Z,40.5
2023-05-21T04:00:16.325Z,40.5
2023-05-21T04:05:46.808Z,40.5
2023-05-21T04:16:48.019Z,40.5
2023-05-21T04:22:18.518Z,40.5
2023-05-21T04:27:49.088Z,40.5
2023-05-21T04:33:19.571Z,40.5
2023-05-21T04:38:50.054Z,41
2023-05-21T04:44:20.624Z,42
2023-05-21T04:49:51.094Z,43
2023-05-21T04:55:21.554Z,44
2023-05-21T05:06:22.683Z,45
2023-05-21T05:18:28.826Z,46
2023-05-21T05:23:59.281Z,45
2023-05-21T05:29:28.758Z,44.5
2023-05-21T05:35:01.064Z,44
2023-05-21T05:40:29.711Z,43.5
2023-05-21T05:46:00.437Z,43
2023-05-21T05:51:30.767Z,43
2023-05-21T05:57:01.258Z,42.5
2023-05-21T06:02:31.934Z,42.5
2023-05-21T06:08:02.588Z,42.5
2023-05-21T06:13:33.035Z,42
2023-05-21T06:19:03.598Z,42.5
2023-05-21T06:24:33.984Z,42
2023-05-21T06:30:04.566Z,42
2023-05-21T06:35:35.430Z,41.5
2023-05-21T06:41:05.629Z,42
2023-05-21T06:46:35.201Z,41.5
2023-05-21T06:52:05.624Z,41.5
2023-05-21T06:57:36.225Z,42.5
2023-05-21T07:03:06.822Z,43.5
2023-05-21T07:08:37.179Z,45
2023-05-21T07:14:07.787Z,45
2023-05-21T07:19:38.264Z,45.5
2023-05-21T07:25:08.729Z,46
2023-05-21T07:30:38.373Z,46
2023-05-21T07:36:08.859Z,46
2023-05-21T07:41:39.415Z,46
2023-05-21T07:47:09.900Z,46
2023-05-21T07:52:40.420Z,46
2023-05-21T07:58:09.868Z,46
2023-05-21T08:03:40.448Z,46.5
2023-05-21T08:09:10.932Z,46.5
2023-05-21T08:14:41.510Z,46.5
2023-05-21T08:20:11.970Z,46.5
2023-05-21T08:25:42.543Z,46.5
2023-05-21T08:36:43.510Z,45.5
2023-05-21T08:47:44.805Z,45
2023-05-21T08:53:26.700Z,45.5
2023-05-21T08:58:45.667Z,45.5
2023-05-21T09:04:20.979Z,45.5
2023-05-21T09:09:46.717Z,45.5
2023-05-21T09:15:17.328Z,45
2023-05-21T09:20:47.809Z,45
2023-05-21T09:26:17.274Z,45.5
2023-05-21T09:31:48.056Z,45
2023-05-21T09:37:27.022Z,45
2023-05-21T09:42:48.806Z,44.5
2023-05-21T09:48:19.287Z,45
2023-05-21T09:53:49.798Z,44.5
2023-05-21T09:59:20.353Z,44.5
2023-05-21T10:04:50.911Z,44.5
2023-05-21T10:10:21.455Z,44.5
2023-05-21T10:15:51.930Z,44.5
2023-05-21T10:21:22.389Z,45
2023-05-21T10:26:51.872Z,44.5
2023-05-21T10:32:22.482Z,45
2023-05-21T10:37:52.838Z,45
2023-05-21T10:43:23.435Z,45.5
2023-05-21T10:48:53.897Z,45
2023-05-21T11:05:25.559Z,45
2023-05-21T11:10:56.198Z,44.5
2023-05-21T11:16:26.680Z,45
2023-05-21T11:21:57.111Z,45
2023-05-21T11:27:27.700Z,44.5
2023-05-21T11:32:58.472Z,45
2023-05-21T11:38:27.758Z,45
2023-05-21T11:43:58.230Z,44.5
2023-05-21T11:49:28.702Z,44.5
2023-05-21T11:54:58.226Z,44.5
2023-05-21T12:00:28.692Z,44
2023-05-21T12:05:58.173Z,44
2023-05-21T12:11:28.655Z,44
2023-05-21T12:16:59.190Z,44
2023-05-21T12:22:28.608Z,44
2023-05-21T12:27:59.176Z,44
2023-05-21T12:33:29.682Z,44
2023-05-21T12:39:00.150Z,44
2023-05-21T12:44:30.604Z,44
2023-05-21T12:50:00.188Z,43.5
2023-05-21T12:55:30.572Z,43.5
2023-05-21T13:01:03.036Z,43.5
2023-05-21T13:06:31.674Z,43.5
2023-05-21T13:12:02.157Z,44
2023-05-21T13:17:32.818Z,44
2023-05-21T13:23:05.859Z,43.5
2023-05-21T13:28:33.682Z,43.5
2023-05-21T13:34:05.453Z,43.5
2023-05-21T13:39:33.648Z,43.5
2023-05-21T13:45:04.124Z,43.5
2023-05-21T13:50:33.581Z,43.5
2023-05-21T13:56:04.064Z,43.5
2023-05-21T14:01:33.617Z,43.5
2023-05-21T14:07:04.053Z,43.5
2023-05-21T14:12:34.514Z,43.5
2023-05-21T14:23:35.568Z,43.5
2023-05-21T14:29:06.062Z,43.5
2023-05-21T14:34:36.706Z,44
2023-05-21T14:40:07.186Z,43.5
2023-05-21T14:45:37.861Z,44
2023-05-21T14:51:08.243Z,44
2023-05-21T15:02:09.336Z,44
2023-05-21T15:07:39.925Z,44
2023-05-21T15:13:10.388Z,44
2023-05-21T15:24:11.451Z,44
2023-05-21T15:29:41.930Z,44
2023-05-21T15:35:11.503Z,44.5
2023-05-21T15:40:42.137Z,44.5
2023-05-21T15:46:12.751Z,44.5
2023-05-21T15:51:43.060Z,44.5
2023-05-21T15:57:13.573Z,44.5
2023-05-21T16:02:44.240Z,44.5
2023-05-21T16:08:14.631Z,44.5
2023-05-21T16:14:51.174Z,45
2023-05-21T16:20:21.835Z,45
2023-05-21T16:25:52.270Z,45
2023-05-21T16:31:22.806Z,45.5
2023-05-21T16:42:22.704Z,45
2023-05-21T16:47:53.234Z,45.5
2023-05-21T16:53:23.819Z,45.5
2023-05-21T16:58:54.346Z,45.5
2023-05-21T17:04:24.918Z,45.5
2023-05-21T17:09:55.365Z,46
2023-05-21T17:15:25.839Z,46
2023-05-21T17:20:56.489Z,46
2023-05-21T17:26:26.910Z,46
2023-05-21T17:31:57.515Z,45.5
2023-05-21T17:37:27.997Z,45.5
2023-05-21T17:44:04.558Z,45.5
2023-05-21T17:49:35.377Z,45.5
2023-05-21T17:55:05.645Z,45.5
2023-05-21T18:00:36.287Z,45.5
2023-05-21T18:06:08.781Z,45.5
2023-05-21T18:11:37.176Z,45.5
2023-05-21T18:17:07.808Z,45.5
2023-05-21T18:22:38.242Z,46
2023-05-21T18:28:08.743Z,45.5
2023-05-21T18:33:39.345Z,46
2023-05-21T18:39:09.791Z,46
2023-05-21T18:44:40.534Z,46
2023-05-21T18:50:11.002Z,46
2023-05-21T18:55:41.488Z,46
2023-05-21T19:01:12.122Z,45.5
2023-05-21T19:06:42.536Z,45.5
2023-05-21T19:12:13.101Z,46
2023-05-21T19:17:43.707Z,45.5
2023-05-21T19:23:14.194Z,45.5
2023-05-21T19:28:44.781Z,45.5
2023-05-21T19:34:15.306Z,45.5
2023-05-21T19:39:45.736Z,45.5
2023-05-21T19:45:15.222Z,45.5
2023-05-21T19:50:45.721Z,45.5
2023-05-21T19:56:16.303Z,45.5
2023-05-21T20:07:17.241Z,45
2023-05-21T20:13:53.917Z,45.5
2023-05-21T20:19:24.498Z,45.5
2023-05-21T20:24:54.890Z,45.5
2023-05-21T20:30:25.435Z,45.5
2023-05-21T20:35:55.935Z,45.5
2023-05-21T20:41:26.404Z,45.5
2023-05-21T20:46:57.033Z,45.5
2023-05-21T20:52:27.588Z,45
2023-05-21T20:57:58.176Z,45
2023-05-21T21:04:34.756Z,45
2023-05-21T21:10:05.242Z,45
2023-05-21T21:15:35.818Z,45
2023-05-21T21:21:06.309Z,45
2023-05-21T21:26:36.784Z,45
2023-05-21T21:32:06.290Z,45
2023-05-21T21:37:36.736Z,45
2023-05-21T21:43:07.312Z,45
2023-05-21T21:48:37.804Z,45
2023-05-21T21:54:08.285Z,45
2023-05-21T21:59:38.899Z,45
2023-05-21T22:05:09.373Z,45
2023-05-21T22:10:40.112Z,45
2023-05-21T22:16:10.434Z,45
2023-05-21T22:21:40.925Z,45
2023-05-21T22:27:11.524Z,45
2023-05-21T22:32:42.059Z,45
2023-05-21T22:38:12.458Z,45
2023-05-21T22:43:43.062Z,45
2023-05-21T22:49:13.528Z,45
2023-05-21T22:54:44.004Z,45
2023-05-21T23:00:13.604Z,45
2023-05-21T23:05:44.236Z,45
2023-05-21T23:11:14.693Z,45
2023-05-21T23:16:45.318Z,45
2023-05-21T23:22:15.632Z,45
2023-05-21T23:27:46.225Z,45
2023-05-21T23:33:16.697Z,45
2023-05-21T23:38:46.334Z,45
2023-05-21T23:44:16.830Z,45
2023-05-21T23:49:47.291Z,45
2023-05-21T23:55:17.853Z,45
